Time;durP1;ratioP1;P1;durP2;ratioP2;P2;SDS_P1;SDS_P2;PMS_P1;PMS_P2;Temp;Humidity;BMP_temperature;BMP_pressure;BME280_temperature;BME280_humidity;BME280_pressure;Samples;Min_cycle;Max_cycle;Signal;HPM_P1;HPM_P2
2023/12/16 20:43:47;;;;;;;34.92;19.55;;;0.30;99.90;;;;;;5158631;27;20399;-81
2023/12/16 20:46:43;;;;;;;35.58;21.13;;;-0.10;99.90;;;;;;5145832;27;20051;-79
2023/12/16 20:49:44;;;;;;;37.00;20.00;;;-0.20;99.90;;;;;;5141908;27;20062;-80
2023/12/16 20:52:38;;;;;;;30.88;17.08;;;-0.30;99.90;;;;;;5145325;27;20179;-80
2023/12/16 20:55:36;;;;;;;32.00;16.77;;;-0.30;99.90;;;;;;5140591;27;20431;-81
2023/12/16 20:58:33;;;;;;;40.95;21.42;;;-0.20;99.90;;;;;;5135704;27;20188;-80
2023/12/16 21:05:47;;;;;;;45.83;16.77;;;-0.10;99.90;;;;;;5120454;27;20054;-81
2023/12/16 21:09:23;;;;;;;31.23;15.82;;;0.00;99.90;;;;;;5151848;27;20034;-81
2023/12/16 21:12:14;;;;;;;29.88;16.02;;;0.00;99.90;;;;;;5140982;27;20047;-80
2023/12/16 21:15:09;;;;;;;31.30;18.45;;;0.00;99.90;;;;;;5140165;27;20184;-81
2023/12/16 21:18:01;;;;;;;44.60;19.70;;;0.20;99.90;;;;;;5142731;27;20505;-80
2023/12/16 21:20:53;;;;;;;36.95;19.45;;;0.20;99.90;;;;;;5136754;27;20093;-80
2023/12/16 21:23:54;;;;;;;36.22;18.98;;;0.30;99.90;;;;;;5158592;27;20151;-80
2023/12/16 21:26:44;;;;;;;38.30;18.77;;;0.20;99.90;;;;;;5145641;27;20062;-81
2023/12/16 21:29:31;;;;;;;35.58;19.58;;;0.20;99.90;;;;;;5158753;27;20046;-82
2023/12/16 21:32:19;;;;;;;35.17;19.13;;;0.30;99.90;;;;;;5166271;27;20126;-82
2023/12/16 21:35:10;;;;;;;41.08;18.48;;;0.40;99.90;;;;;;5155926;27;20117;-81
2023/12/16 21:37:59;;;;;;;36.05;19.02;;;0.40;99.90;;;;;;5164822;27;20484;-81
2023/12/16 21:40:46;;;;;;;37.47;18.55;;;0.50;99.90;;;;;;5164246;27;20045;-78
2023/12/16 21:43:34;;;;;;;39.30;20.00;;;0.60;99.90;;;;;;5158728;27;20042;-79
2023/12/16 21:46:21;;;;;;;43.58;20.65;;;0.70;99.90;;;;;;5153265;27;20115;-79
2023/12/16 21:49:09;;;;;;;40.78;20.70;;;0.70;99.90;;;;;;5146964;27;20043;-80
2023/12/16 21:51:57;;;;;;;35.50;19.63;;;0.50;99.90;;;;;;5249930;22;20034;-80
2023/12/16 21:54:45;;;;;;;33.08;19.05;;;0.30;99.90;;;;;;5082842;28;20052;-80
2023/12/16 21:57:32;;;;;;;37.83;20.50;;;0.20;99.90;;;;;;5089775;28;20044;-78
2023/12/16 22:00:20;;;;;;;55.33;28.52;;;0.20;99.90;;;;;;5089971;28;20067;-78
2023/12/16 22:03:10;;;;;;;47.45;23.42;;;0.20;99.90;;;;;;5090208;28;20051;-78
2023/12/16 22:05:58;;;;;;;40.08;20.45;;;0.20;99.90;;;;;;5089361;28;20063;-79
2023/12/16 22:08:50;;;;;;;36.42;20.05;;;0.20;99.90;;;;;;5089776;28;20066;-79
2023/12/16 22:11:42;;;;;;;40.60;20.17;;;0.20;99.90;;;;;;5088946;28;20052;-81
2023/12/16 22:14:32;;;;;;;45.05;20.70;;;0.20;99.90;;;;;;5091741;28;20044;-80
2023/12/16 22:17:22;;;;;;;41.45;19.73;;;0.20;99.90;;;;;;5069358;28;20036;-80
2023/12/16 22:20:15;;;;;;;39.38;20.77;;;0.20;99.90;;;;;;5089050;28;20032;-80
2023/12/16 22:23:02;;;;;;;38.63;20.00;;;0.20;99.90;;;;;;5087856;28;20084;-80
2023/12/16 22:25:49;;;;;;;38.67;19.35;;;0.10;99.90;;;;;;5089461;28;20120;-80
2023/12/16 22:28:37;;;;;;;43.97;20.88;;;0.10;99.90;;;;;;5089705;28;20051;-78
2023/12/16 22:31:26;;;;;;;30.95;18.63;;;0.10;99.90;;;;;;5088439;28;20371;-81
2023/12/16 22:34:14;;;;;;;34.53;18.25;;;0.00;99.90;;;;;;5088753;28;20040;-80
2023/12/16 22:37:02;;;;;;;43.15;22.20;;;0.00;99.90;;;;;;5091389;28;20490;-78
2023/12/16 22:39:49;;;;;;;43.17;23.25;;;0.00;99.90;;;;;;5091362;28;20345;-80
2023/12/16 22:42:39;;;;;;;46.60;21.60;;;0.10;99.90;;;;;;5088094;28;20649;-79
2023/12/16 22:45:26;;;;;;;46.63;21.88;;;0.20;99.90;;;;;;5087474;28;20445;-77
2023/12/16 22:48:14;;;;;;;45.47;22.15;;;0.30;99.90;;;;;;5084811;28;20044;-79
2023/12/16 22:51:02;;;;;;;44.85;22.25;;;0.30;99.90;;;;;;5087564;28;20090;-80
2023/12/16 22:53:51;;;;;;;47.78;22.40;;;0.30;99.90;;;;;;5088555;28;20061;-79
2023/12/16 22:56:39;;;;;;;46.75;21.95;;;0.10;99.90;;;;;;5087216;28;20508;-79
2023/12/16 22:59:26;;;;;;;54.08;24.92;;;0.00;99.90;;;;;;5087616;28;20042;-79
2023/12/16 23:02:14;;;;;;;47.92;23.42;;;-0.10;99.90;;;;;;5086828;28;20352;-79
2023/12/16 23:05:04;;;;;;;45.53;23.58;;;-0.20;99.90;;;;;;5081410;28;20055;-80
2023/12/16 23:07:51;;;;;;;48.47;23.05;;;-0.20;99.90;;;;;;5086777;28;20126;-78
2023/12/16 23:10:39;;;;;;;47.75;25.20;;;-0.20;99.90;;;;;;5075762;28;20044;-79
2023/12/16 23:13:26;;;;;;;43.72;24.90;;;-0.20;99.90;;;;;;5070224;28;20450;-79
2023/12/16 23:16:14;;;;;;;50.13;26.73;;;-0.20;99.90;;;;;;5087966;28;20109;-79
2023/12/16 23:19:01;;;;;;;56.85;25.95;;;-0.20;99.90;;;;;;5080748;28;20151;-79
2023/12/16 23:21:50;;;;;;;44.78;24.67;;;-0.20;99.90;;;;;;5089232;28;20109;-79
2023/12/16 23:24:37;;;;;;;48.78;24.13;;;-0.20;99.90;;;;;;5083474;28;20133;-80
2023/12/16 23:27:27;;;;;;;41.38;24.33;;;-0.20;99.90;;;;;;5084355;28;20509;-79
2023/12/16 23:30:14;;;;;;;44.22;23.92;;;-0.20;99.90;;;;;;5089868;28;20046;-78
2023/12/16 23:33:02;;;;;;;40.35;24.02;;;-0.20;99.90;;;;;;5087944;28;20048;-78
2023/12/16 23:35:49;;;;;;;58.78;29.95;;;-0.30;99.90;;;;;;5079608;28;20060;-79
2023/12/16 23:38:37;;;;;;;52.85;28.45;;;-0.30;99.90;;;;;;5089515;28;20170;-79
2023/12/16 23:41:24;;;;;;;48.45;26.15;;;-0.20;99.90;;;;;;5087120;28;20059;-81
2023/12/16 23:44:14;;;;;;;48.67;26.52;;;-0.10;99.90;;;;;;5079601;28;20052;-80
2023/12/16 23:47:03;;;;;;;46.72;23.80;;;-0.10;99.90;;;;;;5079769;28;20049;-79
2023/12/16 23:49:51;;;;;;;42.35;25.08;;;-0.20;99.90;;;;;;5074946;28;20047;-80
2023/12/16 23:52:38;;;;;;;48.60;23.83;;;-0.30;99.90;;;;;;5083299;28;20048;-80
2023/12/16 23:55:28;;;;;;;41.42;22.05;;;-0.40;99.90;;;;;;5087714;28;20143;-79
2023/12/16 23:58:15;;;;;;;45.15;23.38;;;-0.40;99.90;;;;;;5069598;28;20436;-78
